sensor_id;sensor_type;location;lat;lon;timestamp;temperature;humidity
26641;DHT22;14269;47.358;0.724;2023-04-07T00:01:54;10.0;77.0
26641;DHT22;14269;47.358;0.724;2023-04-07T00:04:25;10.0;77.0
26641;DHT22;14269;47.358;0.724;2023-04-07T00:06:57;10.0;77.0
26641;DHT22;14269;47.358;0.724;2023-04-07T00:09:29;10.0;77.0
26641;DHT22;14269;47.358;0.724;2023-04-07T00:12:01;10.0;77.0
26641;DHT22;14269;47.358;0.724;2023-04-07T00:14:32;10.0;77.0
26641;DHT22;14269;47.358;0.724;2023-04-07T00:17:04;10.0;77.0
26641;DHT22;14269;47.358;0.724;2023-04-07T00:19:35;10.0;77.0
26641;DHT22;14269;47.358;0.724;2023-04-07T00:22:07;10.0;78.0
26641;DHT22;14269;47.358;0.724;2023-04-07T00:24:39;10.0;78.0
26641;DHT22;14269;47.358;0.724;2023-04-07T00:27:10;10.0;78.0
26641;DHT22;14269;47.358;0.724;2023-04-07T00:29:42;10.0;77.0
26641;DHT22;14269;47.358;0.724;2023-04-07T00:32:24;10.0;77.0
26641;DHT22;14269;47.358;0.724;2023-04-07T00:34:55;10.0;77.0
26641;DHT22;14269;47.358;0.724;2023-04-07T00:37:27;10.0;77.0
26641;DHT22;14269;47.358;0.724;2023-04-07T00:39:59;10.0;77.0
26641;DHT22;14269;47.358;0.724;2023-04-07T00:42:32;10.0;78.0
26641;DHT22;14269;47.358;0.724;2023-04-07T00:45:12;10.0;78.0
26641;DHT22;14269;47.358;0.724;2023-04-07T00:47:44;10.0;77.0
26641;DHT22;14269;47.358;0.724;2023-04-07T00:50:15;10.0;77.0
26641;DHT22;14269;47.358;0.724;2023-04-07T00:52:57;9.0;77.0
26641;DHT22;14269;47.358;0.724;2023-04-07T00:55:29;10.0;77.0
26641;DHT22;14269;47.358;0.724;2023-04-07T00:58:00;9.0;77.0
26641;DHT22;14269;47.358;0.724;2023-04-07T01:00:36;10.0;77.0
26641;DHT22;14269;47.358;0.724;2023-04-07T01:03:17;10.0;77.0
26641;DHT22;14269;47.358;0.724;2023-04-07T01:05:59;10.0;77.0
26641;DHT22;14269;47.358;0.724;2023-04-07T01:08:44;10.0;77.0
26641;DHT22;14269;47.358;0.724;2023-04-07T01:11:23;10.0;76.0
26641;DHT22;14269;47.358;0.724;2023-04-07T01:14:01;10.0;76.0
26641;DHT22;14269;47.358;0.724;2023-04-07T01:16:37;10.0;76.0
26641;DHT22;14269;47.358;0.724;2023-04-07T01:19:21;10.0;77.0
26641;DHT22;14269;47.358;0.724;2023-04-07T01:22:09;10.0;76.0
26641;DHT22;14269;47.358;0.724;2023-04-07T01:25:20;9.0;77.0
26641;DHT22;14269;47.358;0.724;2023-04-07T01:28:14;10.0;77.0
26641;DHT22;14269;47.358;0.724;2023-04-07T01:30:54;10.0;77.0
26641;DHT22;14269;47.358;0.724;2023-04-07T01:33:34;10.0;77.0
26641;DHT22;14269;47.358;0.724;2023-04-07T01:36:16;10.0;76.0
26641;DHT22;14269;47.358;0.724;2023-04-07T01:38:58;10.0;76.0
26641;DHT22;14269;47.358;0.724;2023-04-07T01:41:29;10.0;76.0
26641;DHT22;14269;47.358;0.724;2023-04-07T01:44:01;10.0;76.0
26641;DHT22;14269;47.358;0.724;2023-04-07T01:46:32;10.0;75.0
26641;DHT22;14269;47.358;0.724;2023-04-07T01:49:04;10.0;76.0
26641;DHT22;14269;47.358;0.724;2023-04-07T01:51:35;10.0;76.0
26641;DHT22;14269;47.358;0.724;2023-04-07T01:54:07;9.0;77.0
26641;DHT22;14269;47.358;0.724;2023-04-07T01:56:38;9.0;77.0
26641;DHT22;14269;47.358;0.724;2023-04-07T01:59:10;9.0;77.0
26641;DHT22;14269;47.358;0.724;2023-04-07T02:01:42;9.0;78.0
26641;DHT22;14269;47.358;0.724;2023-04-07T02:04:18;9.0;78.0
26641;DHT22;14269;47.358;0.724;2023-04-07T02:06:59;9.0;77.0
26641;DHT22;14269;47.358;0.724;2023-04-07T02:09:39;9.0;77.0
26641;DHT22;14269;47.358;0.724;2023-04-07T02:12:19;9.0;76.0
26641;DHT22;14269;47.358;0.724;2023-04-07T02:14:51;9.0;77.0
26641;DHT22;14269;47.358;0.724;2023-04-07T02:17:23;9.0;77.0
26641;DHT22;14269;47.358;0.724;2023-04-07T02:20:05;9.0;76.0
26641;DHT22;14269;47.358;0.724;2023-04-07T02:22:46;9.0;76.0
26641;DHT22;14269;47.358;0.724;2023-04-07T02:25:22;9.0;76.0
26641;DHT22;14269;47.358;0.724;2023-04-07T02:28:00;9.0;76.0
26641;DHT22;14269;47.358;0.724;2023-04-07T02:30:32;9.0;76.0
26641;DHT22;14269;47.358;0.724;2023-04-07T02:33:12;9.0;76.0
26641;DHT22;14269;47.358;0.724;2023-04-07T02:35:44;9.0;76.0
26641;DHT22;14269;47.358;0.724;2023-04-07T02:38:16;9.0;76.0
26641;DHT22;14269;47.358;0.724;2023-04-07T02:40:47;9.0;75.0
26641;DHT22;14269;47.358;0.724;2023-04-07T02:43:20;9.0;75.0
26641;DHT22;14269;47.358;0.724;2023-04-07T02:45:50;9.0;75.0
26641;DHT22;14269;47.358;0.724;2023-04-07T02:48:22;9.0;75.0
26641;DHT22;14269;47.358;0.724;2023-04-07T02:50:54;9.0;75.0
26641;DHT22;14269;47.358;0.724;2023-04-07T02:53:25;9.0;75.0
26641;DHT22;14269;47.358;0.724;2023-04-07T02:55:57;9.0;75.0
26641;DHT22;14269;47.358;0.724;2023-04-07T02:58:29;9.0;75.0
26641;DHT22;14269;47.358;0.724;2023-04-07T03:01:00;9.0;75.0
26641;DHT22;14269;47.358;0.724;2023-04-07T03:03:32;9.0;75.0
26641;DHT22;14269;47.358;0.724;2023-04-07T03:06:04;9.0;75.0
26641;DHT22;14269;47.358;0.724;2023-04-07T03:08:36;9.0;75.0
26641;DHT22;14269;47.358;0.724;2023-04-07T03:11:07;9.0;75.0
26641;DHT22;14269;47.358;0.724;2023-04-07T03:13:39;9.0;75.0
26641;DHT22;14269;47.358;0.724;2023-04-07T03:16:10;9.0;75.0
26641;DHT22;14269;47.358;0.724;2023-04-07T03:18:42;9.0;75.0
26641;DHT22;14269;47.358;0.724;2023-04-07T03:21:14;9.0;75.0
26641;DHT22;14269;47.358;0.724;2023-04-07T03:23:46;9.0;75.0
26641;DHT22;14269;47.358;0.724;2023-04-07T03:26:17;9.0;76.0
26641;DHT22;14269;47.358;0.724;2023-04-07T03:28:48;9.0;76.0
26641;DHT22;14269;47.358;0.724;2023-04-07T03:31:20;9.0;76.0
26641;DHT22;14269;47.358;0.724;2023-04-07T03:33:52;9.0;76.0
26641;DHT22;14269;47.358;0.724;2023-04-07T03:36:23;9.0;76.0
26641;DHT22;14269;47.358;0.724;2023-04-07T03:38:55;9.0;76.0
26641;DHT22;14269;47.358;0.724;2023-04-07T03:41:27;9.0;76.0
26641;DHT22;14269;47.358;0.724;2023-04-07T03:43:58;9.0;76.0
26641;DHT22;14269;47.358;0.724;2023-04-07T03:46:30;9.0;76.0
26641;DHT22;14269;47.358;0.724;2023-04-07T03:49:02;9.0;76.0
26641;DHT22;14269;47.358;0.724;2023-04-07T03:51:33;9.0;75.0
26641;DHT22;14269;47.358;0.724;2023-04-07T03:54:05;9.0;75.0
26641;DHT22;14269;47.358;0.724;2023-04-07T03:56:37;9.0;75.0
26641;DHT22;14269;47.358;0.724;2023-04-07T03:59:08;9.0;75.0
26641;DHT22;14269;47.358;0.724;2023-04-07T04:01:40;8.0;75.0
26641;DHT22;14269;47.358;0.724;2023-04-07T04:04:12;8.0;75.0
26641;DHT22;14269;47.358;0.724;2023-04-07T04:06:43;8.0;75.0
26641;DHT22;14269;47.358;0.724;2023-04-07T04:09:15;8.0;75.0
26641;DHT22;14269;47.358;0.724;2023-04-07T04:11:47;8.0;75.0
26641;DHT22;14269;47.358;0.724;2023-04-07T04:14:18;8.0;75.0
26641;DHT22;14269;47.358;0.724;2023-04-07T04:16:50;8.0;75.0
26641;DHT22;14269;47.358;0.724;2023-04-07T04:19:21;8.0;75.0
26641;DHT22;14269;47.358;0.724;2023-04-07T04:21:53;8.0;75.0
26641;DHT22;14269;47.358;0.724;2023-04-07T04:24:25;8.0;75.0
26641;DHT22;14269;47.358;0.724;2023-04-07T04:26:56;8.0;75.0
26641;DHT22;14269;47.358;0.724;2023-04-07T04:29:28;8.0;75.0
26641;DHT22;14269;47.358;0.724;2023-04-07T04:32:00;8.0;75.0
26641;DHT22;14269;47.358;0.724;2023-04-07T04:34:31;8.0;75.0
26641;DHT22;14269;47.358;0.724;2023-04-07T04:37:03;8.0;75.0
26641;DHT22;14269;47.358;0.724;2023-04-07T04:39:35;8.0;74.0
26641;DHT22;14269;47.358;0.724;2023-04-07T04:42:06;8.0;75.0
26641;DHT22;14269;47.358;0.724;2023-04-07T04:44:38;8.0;74.0
26641;DHT22;14269;47.358;0.724;2023-04-07T04:47:10;8.0;74.0
26641;DHT22;14269;47.358;0.724;2023-04-07T04:49:41;8.0;74.0
26641;DHT22;14269;47.358;0.724;2023-04-07T04:52:13;8.0;75.0
26641;DHT22;14269;47.358;0.724;2023-04-07T04:54:45;8.0;75.0
26641;DHT22;14269;47.358;0.724;2023-04-07T04:57:16;8.0;75.0
26641;DHT22;14269;47.358;0.724;2023-04-07T04:59:48;8.0;75.0
26641;DHT22;14269;47.358;0.724;2023-04-07T05:02:20;8.0;75.0
26641;DHT22;14269;47.358;0.724;2023-04-07T05:04:51;8.0;75.0
26641;DHT22;14269;47.358;0.724;2023-04-07T05:07:23;8.0;75.0
26641;DHT22;14269;47.358;0.724;2023-04-07T05:09:54;8.0;75.0
26641;DHT22;14269;47.358;0.724;2023-04-07T05:12:26;8.0;75.0
26641;DHT22;14269;47.358;0.724;2023-04-07T05:14:58;8.0;75.0
26641;DHT22;14269;47.358;0.724;2023-04-07T05:17:29;8.0;75.0
26641;DHT22;14269;47.358;0.724;2023-04-07T05:20:01;8.0;75.0
26641;DHT22;14269;47.358;0.724;2023-04-07T05:22:43;8.0;74.0
26641;DHT22;14269;47.358;0.724;2023-04-07T05:25:14;8.0;75.0
26641;DHT22;14269;47.358;0.724;2023-04-07T05:27:46;8.0;75.0
26641;DHT22;14269;47.358;0.724;2023-04-07T05:30:18;8.0;75.0
26641;DHT22;14269;47.358;0.724;2023-04-07T05:32:50;8.0;75.0
26641;DHT22;14269;47.358;0.724;2023-04-07T05:35:31;8.0;75.0
26641;DHT22;14269;47.358;0.724;2023-04-07T05:38:03;8.0;75.0
26641;DHT22;14269;47.358;0.724;2023-04-07T05:40:34;8.0;75.0
26641;DHT22;14269;47.358;0.724;2023-04-07T05:43:06;8.0;75.0
26641;DHT22;14269;47.358;0.724;2023-04-07T05:45:38;8.0;75.0
26641;DHT22;14269;47.358;0.724;2023-04-07T05:48:09;8.0;75.0
26641;DHT22;14269;47.358;0.724;2023-04-07T05:50:41;8.0;75.0
26641;DHT22;14269;47.358;0.724;2023-04-07T05:53:13;8.0;75.0
26641;DHT22;14269;47.358;0.724;2023-04-07T05:55:44;8.0;75.0
26641;DHT22;14269;47.358;0.724;2023-04-07T05:58:16;8.0;76.0
26641;DHT22;14269;47.358;0.724;2023-04-07T06:00:47;8.0;77.0
26641;DHT22;14269;47.358;0.724;2023-04-07T06:03:19;8.0;76.0
26641;DHT22;14269;47.358;0.724;2023-04-07T06:05:51;8.0;78.0
26641;DHT22;14269;47.358;0.724;2023-04-07T06:08:23;8.0;77.0
26641;DHT22;14269;47.358;0.724;2023-04-07T06:10:55;8.0;77.0
26641;DHT22;14269;47.358;0.724;2023-04-07T06:13:26;8.0;78.0
26641;DHT22;14269;47.358;0.724;2023-04-07T06:15:57;8.0;78.0
26641;DHT22;14269;47.358;0.724;2023-04-07T06:18:29;8.0;77.0
26641;DHT22;14269;47.358;0.724;2023-04-07T06:21:01;8.0;77.0
26641;DHT22;14269;47.358;0.724;2023-04-07T06:23:32;8.0;77.0
26641;DHT22;14269;47.358;0.724;2023-04-07T06:26:04;8.0;77.0
26641;DHT22;14269;47.358;0.724;2023-04-07T06:28:36;8.0;78.0
26641;DHT22;14269;47.358;0.724;2023-04-07T06:31:07;8.0;78.0
26641;DHT22;14269;47.358;0.724;2023-04-07T06:33:39;8.0;78.0
26641;DHT22;14269;47.358;0.724;2023-04-07T06:36:11;8.0;78.0
26641;DHT22;14269;47.358;0.724;2023-04-07T06:38:42;8.0;78.0
26641;DHT22;14269;47.358;0.724;2023-04-07T06:41:16;8.0;78.0
26641;DHT22;14269;47.358;0.724;2023-04-07T06:43:56;8.0;79.0
26641;DHT22;14269;47.358;0.724;2023-04-07T06:46:27;8.0;79.0
26641;DHT22;14269;47.358;0.724;2023-04-07T06:48:59;8.0;79.0
26641;DHT22;14269;47.358;0.724;2023-04-07T06:51:31;8.0;79.0
26641;DHT22;14269;47.358;0.724;2023-04-07T06:54:04;8.0;79.0
26641;DHT22;14269;47.358;0.724;2023-04-07T06:56:44;9.0;78.0
26641;DHT22;14269;47.358;0.724;2023-04-07T06:59:16;9.0;78.0
26641;DHT22;14269;47.358;0.724;2023-04-07T07:01:48;9.0;78.0
26641;DHT22;14269;47.358;0.724;2023-04-07T07:04:19;9.0;77.0
26641;DHT22;14269;47.358;0.724;2023-04-07T07:06:50;9.0;78.0
26641;DHT22;14269;47.358;0.724;2023-04-07T07:09:22;9.0;78.0
26641;DHT22;14269;47.358;0.724;2023-04-07T07:11:54;9.0;77.0
26641;DHT22;14269;47.358;0.724;2023-04-07T07:14:25;9.0;76.0
26641;DHT22;14269;47.358;0.724;2023-04-07T07:16:57;9.0;77.0
26641;DHT22;14269;47.358;0.724;2023-04-07T07:19:29;9.0;76.0
26641;DHT22;14269;47.358;0.724;2023-04-07T07:22:03;9.0;77.0
26641;DHT22;14269;47.358;0.724;2023-04-07T07:24:42;9.0;78.0
26641;DHT22;14269;47.358;0.724;2023-04-07T07:27:14;9.0;78.0
26641;DHT22;14269;47.358;0.724;2023-04-07T07:29:46;9.0;78.0
26641;DHT22;14269;47.358;0.724;2023-04-07T07:32:17;9.0;78.0
26641;DHT22;14269;47.358;0.724;2023-04-07T07:34:49;9.0;78.0
26641;DHT22;14269;47.358;0.724;2023-04-07T07:37:20;9.0;79.0
26641;DHT22;14269;47.358;0.724;2023-04-07T07:39:52;9.0;79.0
26641;DHT22;14269;47.358;0.724;2023-04-07T07:42:24;9.0;79.0
26641;DHT22;14269;47.358;0.724;2023-04-07T07:44:55;9.0;79.0
26641;DHT22;14269;47.358;0.724;2023-04-07T07:47:27;9.0;79.0
26641;DHT22;14269;47.358;0.724;2023-04-07T07:49:59;9.0;79.0
26641;DHT22;14269;47.358;0.724;2023-04-07T07:52:30;9.0;79.0
26641;DHT22;14269;47.358;0.724;2023-04-07T07:55:03;9.0;79.0
26641;DHT22;14269;47.358;0.724;2023-04-07T07:57:34;9.0;79.0
26641;DHT22;14269;47.358;0.724;2023-04-07T08:00:06;9.0;79.0
26641;DHT22;14269;47.358;0.724;2023-04-07T08:02:47;9.0;79.0
26641;DHT22;14269;47.358;0.724;2023-04-07T08:05:19;9.0;79.0
26641;DHT22;14269;47.358;0.724;2023-04-07T08:07:51;9.0;78.0
26641;DHT22;14269;47.358;0.724;2023-04-07T08:10:24;9.0;79.0
26641;DHT22;14269;47.358;0.724;2023-04-07T08:13:04;9.0;78.0
26641;DHT22;14269;47.358;0.724;2023-04-07T08:15:35;9.0;78.0
26641;DHT22;14269;47.358;0.724;2023-04-07T08:18:07;9.0;77.0
26641;DHT22;14269;47.358;0.724;2023-04-07T08:20:39;9.0;77.0
26641;DHT22;14269;47.358;0.724;2023-04-07T08:23:10;9.0;77.0
26641;DHT22;14269;47.358;0.724;2023-04-07T08:25:42;9.0;78.0
26641;DHT22;14269;47.358;0.724;2023-04-07T08:28:14;9.0;78.0
26641;DHT22;14269;47.358;0.724;2023-04-07T08:30:45;9.0;78.0
26641;DHT22;14269;47.358;0.724;2023-04-07T08:33:17;9.0;77.0
26641;DHT22;14269;47.358;0.724;2023-04-07T08:35:48;9.0;77.0
26641;DHT22;14269;47.358;0.724;2023-04-07T08:38:21;9.0;78.0
26641;DHT22;14269;47.358;0.724;2023-04-07T08:40:57;10.0;78.0
26641;DHT22;14269;47.358;0.724;2023-04-07T08:43:35;10.0;77.0
26641;DHT22;14269;47.358;0.724;2023-04-07T08:46:18;10.0;77.0
26641;DHT22;14269;47.358;0.724;2023-04-07T08:48:58;10.0;77.0
26641;DHT22;14269;47.358;0.724;2023-04-07T08:51:45;10.0;76.0
26641;DHT22;14269;47.358;0.724;2023-04-07T08:54:23;10.0;76.0
26641;DHT22;14269;47.358;0.724;2023-04-07T08:57:03;10.0;76.0
26641;DHT22;14269;47.358;0.724;2023-04-07T08:59:35;10.0;76.0
26641;DHT22;14269;47.358;0.724;2023-04-07T09:02:06;10.0;76.0
26641;DHT22;14269;47.358;0.724;2023-04-07T09:04:37;10.0;76.0
26641;DHT22;14269;47.358;0.724;2023-04-07T09:07:09;10.0;76.0
26641;DHT22;14269;47.358;0.724;2023-04-07T09:09:41;10.0;76.0
26641;DHT22;14269;47.358;0.724;2023-04-07T09:12:12;10.0;76.0
26641;DHT22;14269;47.358;0.724;2023-04-07T09:14:44;10.0;76.0
26641;DHT22;14269;47.358;0.724;2023-04-07T09:17:15;10.0;75.0
26641;DHT22;14269;47.358;0.724;2023-04-07T09:19:47;10.0;74.0
26641;DHT22;14269;47.358;0.724;2023-04-07T09:22:34;10.0;74.0
26641;DHT22;14269;47.358;0.724;2023-04-07T09:25:13;10.0;75.0
26641;DHT22;14269;47.358;0.724;2023-04-07T09:27:54;10.0;75.0
26641;DHT22;14269;47.358;0.724;2023-04-07T09:30:34;10.0;74.0
26641;DHT22;14269;47.358;0.724;2023-04-07T09:33:06;10.0;74.0
26641;DHT22;14269;47.358;0.724;2023-04-07T09:35:51;11.0;73.0
26641;DHT22;14269;47.358;0.724;2023-04-07T09:38:32;11.0;72.0
26641;DHT22;14269;47.358;0.724;2023-04-07T09:41:13;11.0;71.0
26641;DHT22;14269;47.358;0.724;2023-04-07T09:43:55;11.0;70.0
26641;DHT22;14269;47.358;0.724;2023-04-07T09:46:35;11.0;70.0
26641;DHT22;14269;47.358;0.724;2023-04-07T09:49:07;11.0;70.0
26641;DHT22;14269;47.358;0.724;2023-04-07T09:51:51;11.0;69.0
26641;DHT22;14269;47.358;0.724;2023-04-07T09:54:33;11.0;72.0
26641;DHT22;14269;47.358;0.724;2023-04-07T09:57:12;11.0;72.0
26641;DHT22;14269;47.358;0.724;2023-04-07T09:59:43;11.0;71.0
26641;DHT22;14269;47.358;0.724;2023-04-07T10:02:15;11.0;71.0
26641;DHT22;14269;47.358;0.724;2023-04-07T10:04:46;11.0;72.0
26641;DHT22;14269;47.358;0.724;2023-04-07T10:07:18;11.0;71.0
26641;DHT22;14269;47.358;0.724;2023-04-07T10:09:50;11.0;72.0
26641;DHT22;14269;47.358;0.724;2023-04-07T10:12:23;11.0;72.0
26641;DHT22;14269;47.358;0.724;2023-04-07T10:15:04;12.0;71.0
26641;DHT22;14269;47.358;0.724;2023-04-07T10:17:35;12.0;71.0
26641;DHT22;14269;47.358;0.724;2023-04-07T10:20:17;12.0;69.0
26641;DHT22;14269;47.358;0.724;2023-04-07T10:23:03;12.0;69.0
26641;DHT22;14269;47.358;0.724;2023-04-07T10:25:41;12.0;70.0
26641;DHT22;14269;47.358;0.724;2023-04-07T10:28:24;12.0;70.0
26641;DHT22;14269;47.358;0.724;2023-04-07T10:31:04;12.0;69.0
26641;DHT22;14269;47.358;0.724;2023-04-07T10:33:52;12.0;70.0
26641;DHT22;14269;47.358;0.724;2023-04-07T10:36:28;13.0;68.0
26641;DHT22;14269;47.358;0.724;2023-04-07T10:39:30;13.0;65.0
26641;DHT22;14269;47.358;0.724;2023-04-07T10:42:43;14.0;62.0
26641;DHT22;14269;47.358;0.724;2023-04-07T10:45:58;14.0;62.0
26641;DHT22;14269;47.358;0.724;2023-04-07T10:48:35;15.0;60.0
26641;DHT22;14269;47.358;0.724;2023-04-07T10:51:14;15.0;57.0
26641;DHT22;14269;47.358;0.724;2023-04-07T10:54:22;15.0;57.0
26641;DHT22;14269;47.358;0.724;2023-04-07T10:57:11;16.0;59.0
26641;DHT22;14269;47.358;0.724;2023-04-07T11:00:14;15.0;57.0
26641;DHT22;14269;47.358;0.724;2023-04-07T11:02:54;15.0;60.0
26641;DHT22;14269;47.358;0.724;2023-04-07T11:05:26;15.0;59.0
26641;DHT22;14269;47.358;0.724;2023-04-07T11:08:01;14.0;59.0
26641;DHT22;14269;47.358;0.724;2023-04-07T11:10:40;14.0;59.0
26641;DHT22;14269;47.358;0.724;2023-04-07T11:13:22;14.0;59.0
26641;DHT22;14269;47.358;0.724;2023-04-07T11:15:53;14.0;60.0
26641;DHT22;14269;47.358;0.724;2023-04-07T11:18:25;14.0;62.0
26641;DHT22;14269;47.358;0.724;2023-04-07T11:20:57;15.0;59.0
26641;DHT22;14269;47.358;0.724;2023-04-07T11:23:40;14.0;58.0
26641;DHT22;14269;47.358;0.724;2023-04-07T11:26:20;14.0;59.0
26641;DHT22;14269;47.358;0.724;2023-04-07T11:28:53;15.0;58.0
26641;DHT22;14269;47.358;0.724;2023-04-07T11:31:33;15.0;55.0
26641;DHT22;14269;47.358;0.724;2023-04-07T11:34:05;17.0;53.0
26641;DHT22;14269;47.358;0.724;2023-04-07T11:36:38;17.0;51.0
26641;DHT22;14269;47.358;0.724;2023-04-07T11:39:19;17.0;51.0
26641;DHT22;14269;47.358;0.724;2023-04-07T11:42:00;18.0;50.0
26641;DHT22;14269;47.358;0.724;2023-04-07T11:44:31;18.0;51.0
26641;DHT22;14269;47.358;0.724;2023-04-07T11:47:04;17.0;50.0
26641;DHT22;14269;47.358;0.724;2023-04-07T11:49:45;17.0;51.0
26641;DHT22;14269;47.358;0.724;2023-04-07T11:52:16;18.0;49.0
26641;DHT22;14269;47.358;0.724;2023-04-07T11:54:49;17.0;51.0
26641;DHT22;14269;47.358;0.724;2023-04-07T11:57:24;16.0;54.0
26641;DHT22;14269;47.358;0.724;2023-04-07T12:00:05;17.0;52.0
26641;DHT22;14269;47.358;0.724;2023-04-07T12:02:43;17.0;52.0
26641;DHT22;14269;47.358;0.724;2023-04-07T12:05:15;18.0;51.0
26641;DHT22;14269;47.358;0.724;2023-04-07T12:07:52;18.0;49.0
26641;DHT22;14269;47.358;0.724;2023-04-07T12:10:28;17.0;53.0
26641;DHT22;14269;47.358;0.724;2023-04-07T12:13:01;18.0;49.0
26641;DHT22;14269;47.358;0.724;2023-04-07T12:15:32;18.0;51.0
26641;DHT22;14269;47.358;0.724;2023-04-07T12:18:03;17.0;51.0
26641;DHT22;14269;47.358;0.724;2023-04-07T12:20:35;17.0;50.0
26641;DHT22;14269;47.358;0.724;2023-04-07T12:23:07;17.0;52.0
26641;DHT22;14269;47.358;0.724;2023-04-07T12:25:38;17.0;55.0
26641;DHT22;14269;47.358;0.724;2023-04-07T12:28:10;17.0;52.0
26641;DHT22;14269;47.358;0.724;2023-04-07T12:30:42;17.0;52.0
26641;DHT22;14269;47.358;0.724;2023-04-07T12:33:23;17.0;51.0
26641;DHT22;14269;47.358;0.724;2023-04-07T12:35:56;16.0;52.0
26641;DHT22;14269;47.358;0.724;2023-04-07T12:38:27;16.0;52.0
26641;DHT22;14269;47.358;0.724;2023-04-07T12:41:02;17.0;51.0
26641;DHT22;14269;47.358;0.724;2023-04-07T12:43:40;17.0;50.0
26641;DHT22;14269;47.358;0.724;2023-04-07T12:46:12;17.0;47.0
26641;DHT22;14269;47.358;0.724;2023-04-07T12:48:43;18.0;47.0
26641;DHT22;14269;47.358;0.724;2023-04-07T12:51:15;17.0;48.0
26641;DHT22;14269;47.358;0.724;2023-04-07T12:53:47;17.0;48.0
26641;DHT22;14269;47.358;0.724;2023-04-07T12:56:18;16.0;49.0
26641;DHT22;14269;47.358;0.724;2023-04-07T12:58:50;16.0;52.0
26641;DHT22;14269;47.358;0.724;2023-04-07T13:01:21;16.0;51.0
26641;DHT22;14269;47.358;0.724;2023-04-07T13:03:53;17.0;50.0
26641;DHT22;14269;47.358;0.724;2023-04-07T13:06:25;18.0;48.0
26641;DHT22;14269;47.358;0.724;2023-04-07T13:08:56;18.0;44.0
26641;DHT22;14269;47.358;0.724;2023-04-07T13:11:28;18.0;47.0
26641;DHT22;14269;47.358;0.724;2023-04-07T13:14:00;17.0;46.0
26641;DHT22;14269;47.358;0.724;2023-04-07T13:16:31;17.0;46.0
26641;DHT22;14269;47.358;0.724;2023-04-07T13:19:03;18.0;44.0
26641;DHT22;14269;47.358;0.724;2023-04-07T13:21:35;18.0;47.0
26641;DHT22;14269;47.358;0.724;2023-04-07T13:24:06;18.0;47.0
26641;DHT22;14269;47.358;0.724;2023-04-07T13:26:38;18.0;46.0
26641;DHT22;14269;47.358;0.724;2023-04-07T13:29:10;18.0;42.0
26641;DHT22;14269;47.358;0.724;2023-04-07T13:31:41;17.0;44.0
26641;DHT22;14269;47.358;0.724;2023-04-07T13:34:13;18.0;43.0
26641;DHT22;14269;47.358;0.724;2023-04-07T13:36:45;19.0;44.0
26641;DHT22;14269;47.358;0.724;2023-04-07T13:39:16;19.0;39.0
26641;DHT22;14269;47.358;0.724;2023-04-07T13:41:48;18.0;40.0
26641;DHT22;14269;47.358;0.724;2023-04-07T13:44:20;19.0;41.0
26641;DHT22;14269;47.358;0.724;2023-04-07T13:46:51;19.0;41.0
26641;DHT22;14269;47.358;0.724;2023-04-07T13:49:23;19.0;40.0
26641;DHT22;14269;47.358;0.724;2023-04-07T13:51:54;20.0;40.0
26641;DHT22;14269;47.358;0.724;2023-04-07T13:54:26;19.0;39.0
26641;DHT22;14269;47.358;0.724;2023-04-07T13:56:58;19.0;41.0
26641;DHT22;14269;47.358;0.724;2023-04-07T13:59:30;19.0;41.0
26641;DHT22;14269;47.358;0.724;2023-04-07T14:02:01;18.0;42.0
26641;DHT22;14269;47.358;0.724;2023-04-07T14:04:33;17.0;42.0
26641;DHT22;14269;47.358;0.724;2023-04-07T14:07:05;17.0;45.0
26641;DHT22;14269;47.358;0.724;2023-04-07T14:09:36;17.0;45.0
26641;DHT22;14269;47.358;0.724;2023-04-07T14:12:08;17.0;46.0
26641;DHT22;14269;47.358;0.724;2023-04-07T14:14:39;17.0;48.0
26641;DHT22;14269;47.358;0.724;2023-04-07T14:17:11;17.0;47.0
26641;DHT22;14269;47.358;0.724;2023-04-07T14:19:43;18.0;47.0
26641;DHT22;14269;47.358;0.724;2023-04-07T14:22:14;18.0;42.0
26641;DHT22;14269;47.358;0.724;2023-04-07T14:24:46;17.0;44.0
26641;DHT22;14269;47.358;0.724;2023-04-07T14:27:21;17.0;44.0
26641;DHT22;14269;47.358;0.724;2023-04-07T14:30:00;17.0;47.0
26641;DHT22;14269;47.358;0.724;2023-04-07T14:32:41;17.0;46.0
26641;DHT22;14269;47.358;0.724;2023-04-07T14:35:13;18.0;44.0
26641;DHT22;14269;47.358;0.724;2023-04-07T14:37:44;19.0;43.0
26641;DHT22;14269;47.358;0.724;2023-04-07T14:40:16;19.0;40.0
26641;DHT22;14269;47.358;0.724;2023-04-07T14:42:48;19.0;38.0
26641;DHT22;14269;47.358;0.724;2023-04-07T14:45:19;19.0;39.0
26641;DHT22;14269;47.358;0.724;2023-04-07T14:47:51;19.0;40.0
26641;DHT22;14269;47.358;0.724;2023-04-07T14:50:22;19.0;38.0
26641;DHT22;14269;47.358;0.724;2023-04-07T14:52:55;19.0;42.0
26641;DHT22;14269;47.358;0.724;2023-04-07T14:55:26;19.0;41.0
26641;DHT22;14269;47.358;0.724;2023-04-07T14:57:57;18.0;44.0
26641;DHT22;14269;47.358;0.724;2023-04-07T15:00:29;18.0;42.0
26641;DHT22;14269;47.358;0.724;2023-04-07T15:03:01;19.0;39.0
26641;DHT22;14269;47.358;0.724;2023-04-07T15:05:32;19.0;39.0
26641;DHT22;14269;47.358;0.724;2023-04-07T15:08:04;19.0;40.0
26641;DHT22;14269;47.358;0.724;2023-04-07T15:10:37;19.0;41.0
26641;DHT22;14269;47.358;0.724;2023-04-07T15:13:17;18.0;40.0
26641;DHT22;14269;47.358;0.724;2023-04-07T15:15:49;18.0;40.0
26641;DHT22;14269;47.358;0.724;2023-04-07T15:18:21;17.0;41.0
26641;DHT22;14269;47.358;0.724;2023-04-07T15:20:52;17.0;42.0
26641;DHT22;14269;47.358;0.724;2023-04-07T15:23:24;17.0;44.0
26641;DHT22;14269;47.358;0.724;2023-04-07T15:25:56;18.0;42.0
26641;DHT22;14269;47.358;0.724;2023-04-07T15:28:28;18.0;44.0
26641;DHT22;14269;47.358;0.724;2023-04-07T15:30:59;18.0;42.0
26641;DHT22;14269;47.358;0.724;2023-04-07T15:33:31;18.0;42.0
26641;DHT22;14269;47.358;0.724;2023-04-07T15:36:03;18.0;43.0
26641;DHT22;14269;47.358;0.724;2023-04-07T15:38:34;18.0;44.0
26641;DHT22;14269;47.358;0.724;2023-04-07T15:41:06;18.0;41.0
26641;DHT22;14269;47.358;0.724;2023-04-07T15:43:37;18.0;43.0
26641;DHT22;14269;47.358;0.724;2023-04-07T15:46:09;18.0;43.0
26641;DHT22;14269;47.358;0.724;2023-04-07T15:48:40;18.0;44.0
26641;DHT22;14269;47.358;0.724;2023-04-07T15:51:12;18.0;42.0
26641;DHT22;14269;47.358;0.724;2023-04-07T15:53:44;18.0;41.0
26641;DHT22;14269;47.358;0.724;2023-04-07T15:56:15;18.0;42.0
26641;DHT22;14269;47.358;0.724;2023-04-07T15:58:47;18.0;42.0
26641;DHT22;14269;47.358;0.724;2023-04-07T16:01:19;18.0;41.0
26641;DHT22;14269;47.358;0.724;2023-04-07T16:03:50;18.0;41.0
26641;DHT22;14269;47.358;0.724;2023-04-07T16:06:22;18.0;42.0
26641;DHT22;14269;47.358;0.724;2023-04-07T16:08:55;18.0;41.0
26641;DHT22;14269;47.358;0.724;2023-04-07T16:11:35;17.0;43.0
26641;DHT22;14269;47.358;0.724;2023-04-07T16:14:07;17.0;43.0
26641;DHT22;14269;47.358;0.724;2023-04-07T16:16:40;17.0;44.0
26641;DHT22;14269;47.358;0.724;2023-04-07T16:19:20;16.0;45.0
26641;DHT22;14269;47.358;0.724;2023-04-07T16:21:53;16.0;45.0
26641;DHT22;14269;47.358;0.724;2023-04-07T16:24:24;16.0;45.0
26641;DHT22;14269;47.358;0.724;2023-04-07T16:26:55;16.0;46.0
26641;DHT22;14269;47.358;0.724;2023-04-07T16:29:27;16.0;45.0
26641;DHT22;14269;47.358;0.724;2023-04-07T16:31:59;16.0;45.0
26641;DHT22;14269;47.358;0.724;2023-04-07T16:34:30;16.0;46.0
26641;DHT22;14269;47.358;0.724;2023-04-07T16:37:02;16.0;46.0
26641;DHT22;14269;47.358;0.724;2023-04-07T16:39:34;16.0;46.0
26641;DHT22;14269;47.358;0.724;2023-04-07T16:42:05;16.0;46.0
26641;DHT22;14269;47.358;0.724;2023-04-07T16:44:37;16.0;48.0
26641;DHT22;14269;47.358;0.724;2023-04-07T16:47:08;16.0;46.0
26641;DHT22;14269;47.358;0.724;2023-04-07T16:49:40;16.0;45.0
26641;DHT22;14269;47.358;0.724;2023-04-07T16:52:12;16.0;47.0